createdAt,value
2017-05-07T00:01:19.885Z,9.20
2017-05-07T00:03:46.891Z,9.20
2017-05-07T00:06:14.992Z,9.30
2017-05-07T00:08:42.048Z,9.60
2017-05-07T00:11:09.069Z,9.80
2017-05-07T00:13:36.488Z,10.00
2017-05-07T00:16:03.486Z,10.20
2017-05-07T00:18:30.496Z,9.90
2017-05-07T00:20:57.956Z,10.20
2017-05-07T00:23:25.696Z,10.00
2017-05-07T00:25:52.750Z,9.60
2017-05-07T00:28:20.119Z,9.70
2017-05-07T00:30:47.136Z,9.70
2017-05-07T00:33:14.219Z,9.80
2017-05-07T00:35:41.642Z,9.50
2017-05-07T00:38:08.673Z,9.40
2017-05-07T00:40:35.691Z,9.20
2017-05-07T00:43:03.824Z,9.10
2017-05-07T00:45:30.868Z,9.10
2017-05-07T00:47:57.853Z,9.00
2017-05-07T00:50:25.975Z,8.80
2017-05-07T00:52:52.992Z,8.80
2017-05-07T00:55:20.028Z,8.80
2017-05-07T00:57:48.265Z,8.80
2017-05-07T01:00:15.295Z,8.90
2017-05-07T01:02:43.126Z,8.90
2017-05-07T01:05:10.533Z,8.90
2017-05-07T01:07:37.575Z,8.70
2017-05-07T01:10:04.596Z,8.80
2017-05-07T01:12:31.988Z,8.80
2017-05-07T01:14:59.029Z,8.70
2017-05-07T01:17:26.187Z,8.90
2017-05-07T01:19:54.154Z,9.30
2017-05-07T01:22:21.911Z,9.10
2017-05-07T01:24:48.974Z,9.30
2017-05-07T01:27:16.307Z,9.40
2017-05-07T01:29:43.669Z,9.50
2017-05-07T01:32:10.667Z,9.50
2017-05-07T01:34:38.583Z,9.40
2017-05-07T01:37:05.657Z,9.20
2017-05-07T01:39:32.681Z,9.10
2017-05-07T01:42:00.160Z,9.00
2017-05-07T01:44:27.170Z,9.00
2017-05-07T01:46:54.197Z,9.10
2017-05-07T01:49:21.525Z,9.10
2017-05-07T01:51:49.274Z,9.10
2017-05-07T01:54:17.031Z,9.10
2017-05-07T01:56:45.201Z,9.10
2017-05-07T01:59:12.233Z,9.10
2017-05-07T02:01:39.206Z,9.00
2017-05-07T02:04:06.634Z,9.00
2017-05-07T02:06:33.625Z,9.10
2017-05-07T02:09:01.380Z,9.10
2017-05-07T02:11:29.638Z,9.20
2017-05-07T02:13:56.700Z,9.50
2017-05-07T02:16:24.471Z,9.70
2017-05-07T02:18:53.037Z,9.80
2017-05-07T02:21:20.037Z,9.80
2017-05-07T02:23:47.131Z,9.90
2017-05-07T02:26:14.576Z,9.80
2017-05-07T02:28:41.617Z,9.70
2017-05-07T02:31:08.653Z,9.90
2017-05-07T02:33:36.156Z,9.90
2017-05-07T02:36:03.913Z,9.80
2017-05-07T02:38:30.916Z,10.00
2017-05-07T02:40:58.305Z,10.00
2017-05-07T02:43:25.310Z,9.90
2017-05-07T02:45:52.321Z,9.50
2017-05-07T02:48:19.864Z,9.20
2017-05-07T02:50:46.895Z,8.90
2017-05-07T02:53:13.911Z,8.90
2017-05-07T02:55:41.312Z,9.00
2017-05-07T02:58:08.317Z,9.20
2017-05-07T03:00:35.340Z,9.20
2017-05-07T03:03:02.701Z,9.30
2017-05-07T03:05:29.703Z,9.20
2017-05-07T03:07:56.750Z,9.30
2017-05-07T03:10:24.060Z,9.20
2017-05-07T03:12:51.109Z,9.40
2017-05-07T03:15:18.108Z,9.30
2017-05-07T03:17:45.464Z,8.90
2017-05-07T03:20:12.457Z,9.00
2017-05-07T03:22:39.455Z,8.90
2017-05-07T03:25:06.799Z,8.60
2017-05-07T03:27:33.847Z,8.60
2017-05-07T03:30:00.881Z,8.80
2017-05-07T03:32:28.475Z,8.60
2017-05-07T03:34:55.522Z,8.30
2017-05-07T03:37:22.540Z,8.30
2017-05-07T03:39:49.906Z,8.40
2017-05-07T03:42:16.937Z,8.40
2017-05-07T03:44:43.964Z,8.50
2017-05-07T03:47:11.375Z,8.70
2017-05-07T03:49:38.364Z,8.80
2017-05-07T03:52:05.370Z,8.70
2017-05-07T03:54:33.642Z,8.30
2017-05-07T03:57:00.655Z,8.30
2017-05-07T03:59:27.687Z,8.10
2017-05-07T04:01:55.000Z,8.00
2017-05-07T04:04:22.015Z,8.00
2017-05-07T04:06:49.061Z,8.10
2017-05-07T04:09:16.440Z,8.00
2017-05-07T04:11:43.489Z,8.00
2017-05-07T04:14:10.500Z,8.20
2017-05-07T04:16:37.901Z,8.30
2017-05-07T04:19:05.759Z,8.50
2017-05-07T04:21:32.813Z,8.60
2017-05-07T04:24:00.916Z,8.30
2017-05-07T04:26:27.982Z,8.20
2017-05-07T04:28:55.005Z,8.40
2017-05-07T04:31:22.429Z,8.70
2017-05-07T04:33:49.464Z,8.90
2017-05-07T04:36:17.248Z,9.10
2017-05-07T04:38:45.428Z,9.20
2017-05-07T04:41:13.188Z,9.20
2017-05-07T04:43:40.978Z,8.90
2017-05-07T04:46:08.520Z,8.90
2017-05-07T04:48:36.323Z,9.10
2017-05-07T04:51:03.377Z,8.90
2017-05-07T04:53:30.875Z,8.60
2017-05-07T04:55:57.944Z,8.70
2017-05-07T04:58:25.753Z,8.80
2017-05-07T05:00:53.150Z,9.00
2017-05-07T05:03:20.169Z,9.10
2017-05-07T05:05:47.176Z,9.10
2017-05-07T05:08:14.600Z,9.40
2017-05-07T05:10:41.630Z,9.50
2017-05-07T05:13:08.665Z,9.20
2017-05-07T05:15:36.056Z,9.10
2017-05-07T05:18:03.072Z,9.30
2017-05-07T05:20:45.392Z,9.40
2017-05-07T05:23:13.381Z,9.50
2017-05-07T05:25:56.488Z,9.10
2017-05-07T05:28:54.167Z,9.20
2017-05-07T05:31:26.129Z,9.10
2017-05-07T05:33:53.947Z,8.90
2017-05-07T05:36:21.001Z,8.90
2017-05-07T05:38:48.892Z,9.00
2017-05-07T05:41:15.945Z,9.10
2017-05-07T05:43:42.984Z,9.00
2017-05-07T05:46:10.364Z,9.00
2017-05-07T05:48:37.436Z,9.00
2017-05-07T05:51:04.448Z,9.00
2017-05-07T05:53:31.931Z,9.30
2017-05-07T05:55:58.979Z,9.20
2017-05-07T05:58:26.000Z,9.40
2017-05-07T06:00:53.467Z,9.50
2017-05-07T06:03:20.529Z,9.50
2017-05-07T06:05:48.312Z,9.60
2017-05-07T06:08:15.741Z,9.70
2017-05-07T06:10:43.536Z,9.70
2017-05-07T06:13:10.561Z,9.70
2017-05-07T06:15:38.124Z,9.80
2017-05-07T06:18:05.150Z,9.90
2017-05-07T06:20:32.170Z,9.90
2017-05-07T06:22:59.546Z,10.00
2017-05-07T06:25:26.549Z,10.20
2017-05-07T06:27:53.572Z,10.30
2017-05-07T06:30:21.725Z,10.40
2017-05-07T06:32:48.763Z,10.50
2017-05-07T06:35:15.835Z,10.70
2017-05-07T06:37:43.997Z,10.80
2017-05-07T06:40:11.858Z,10.90
2017-05-07T06:42:39.644Z,11.10
2017-05-07T06:45:07.789Z,11.40
2017-05-07T06:47:34.863Z,11.60
2017-05-07T06:50:02.079Z,11.60
2017-05-07T06:52:29.572Z,11.50
2017-05-07T06:54:56.623Z,11.40
2017-05-07T06:57:24.390Z,11.50
2017-05-07T06:59:51.827Z,11.50
2017-05-07T07:02:19.604Z,11.50
2017-05-07T07:04:47.400Z,11.50
2017-05-07T07:07:14.914Z,11.40
2017-05-07T07:09:41.933Z,11.50
2017-05-07T07:12:09.112Z,11.50
2017-05-07T07:14:36.523Z,11.80
2017-05-07T07:17:03.563Z,12.10
2017-05-07T07:19:30.601Z,11.80
2017-05-07T07:21:58.530Z,11.90
2017-05-07T07:24:25.563Z,11.80
2017-05-07T07:26:52.616Z,11.70
2017-05-07T07:29:20.077Z,11.70
2017-05-07T07:31:48.493Z,11.70
2017-05-07T07:34:15.509Z,11.70
2017-05-07T07:36:42.833Z,11.70
2017-05-07T07:39:09.867Z,11.80
2017-05-07T07:41:36.893Z,12.00
2017-05-07T07:44:04.315Z,12.20
2017-05-07T07:46:31.459Z,12.40
2017-05-07T07:48:59.221Z,12.40
2017-05-07T07:51:26.688Z,12.70
2017-05-07T07:53:54.482Z,12.70
2017-05-07T07:56:21.492Z,12.80
2017-05-07T07:58:48.954Z,12.80
2017-05-07T08:01:16.749Z,13.00
2017-05-07T08:03:43.790Z,13.20
2017-05-07T08:06:11.480Z,13.30
2017-05-07T08:08:38.490Z,13.20
2017-05-07T08:11:05.580Z,13.30
2017-05-07T08:13:33.590Z,13.00
2017-05-07T08:16:01.408Z,13.00
2017-05-07T08:18:28.605Z,13.50
2017-05-07T08:20:56.062Z,13.40
2017-05-07T08:23:23.092Z,13.30
2017-05-07T08:25:50.106Z,13.30
2017-05-07T08:28:17.503Z,13.40
2017-05-07T08:30:44.538Z,13.20
2017-05-07T08:33:11.548Z,13.40
2017-05-07T08:35:39.039Z,13.30
2017-05-07T08:38:06.086Z,13.30
2017-05-07T08:40:33.119Z,13.20
2017-05-07T08:43:00.624Z,13.10
2017-05-07T08:45:27.665Z,13.10
2017-05-07T08:47:54.734Z,13.10
2017-05-07T08:50:22.880Z,13.20
2017-05-07T08:52:49.923Z,13.10
2017-05-07T08:55:16.981Z,13.30
2017-05-07T08:57:44.445Z,13.30
2017-05-07T09:00:12.237Z,13.30
2017-05-07T09:02:39.310Z,13.50
2017-05-07T09:05:06.709Z,13.60
2017-05-07T09:07:33.745Z,13.70
2017-05-07T09:10:00.782Z,13.70
2017-05-07T09:18:32.096Z,13.50
2017-05-07T09:20:59.113Z,13.60
2017-05-07T09:23:26.133Z,13.60
2017-05-07T09:25:57.224Z,13.60
2017-05-07T09:28:28.990Z,13.60
2017-05-07T09:31:00.612Z,13.50
2017-05-07T09:33:32.086Z,13.60
2017-05-07T09:36:00.287Z,13.50
2017-05-07T09:38:28.044Z,13.50
2017-05-07T09:40:58.513Z,13.80
2017-05-07T09:43:31.543Z,14.10
2017-05-07T09:46:03.493Z,14.10
2017-05-07T09:48:36.169Z,14.00
2017-05-07T09:51:07.898Z,13.90
2017-05-07T09:53:40.462Z,14.10
2017-05-07T09:56:12.239Z,14.20
2017-05-07T09:58:41.200Z,14.30
2017-05-07T10:01:08.996Z,14.20
2017-05-07T10:03:36.017Z,14.40
2017-05-07T10:06:04.264Z,14.20
2017-05-07T10:08:31.279Z,14.30
2017-05-07T10:10:58.324Z,14.20
2017-05-07T10:13:25.744Z,14.10
2017-05-07T10:15:53.522Z,14.10
2017-05-07T10:18:20.553Z,14.40
2017-05-07T10:20:47.999Z,14.50
2017-05-07T10:23:15.031Z,14.50
2017-05-07T10:25:42.073Z,14.70
2017-05-07T10:28:09.554Z,14.50
2017-05-07T10:30:37.122Z,14.70
2017-05-07T10:33:05.170Z,14.80
2017-05-07T10:35:32.639Z,14.90
2017-05-07T10:37:59.668Z,14.90
2017-05-07T10:40:26.649Z,15.00
2017-05-07T10:42:54.783Z,15.10
2017-05-07T10:45:21.776Z,15.10
2017-05-07T10:47:49.544Z,15.10
2017-05-07T10:50:16.848Z,15.20
2017-05-07T10:52:43.872Z,15.20
2017-05-07T10:55:10.904Z,15.20
2017-05-07T10:57:38.314Z,15.30
2017-05-07T11:00:05.320Z,15.50
2017-05-07T11:02:32.355Z,15.50
2017-05-07T11:04:59.780Z,15.50
2017-05-07T11:07:27.534Z,15.40
2017-05-07T11:09:54.560Z,15.50
2017-05-07T11:12:21.920Z,15.60
2017-05-07T11:14:48.962Z,15.60
2017-05-07T11:17:15.990Z,15.70
2017-05-07T11:19:43.400Z,15.80
2017-05-07T11:22:10.435Z,15.80
2017-05-07T11:24:37.469Z,16.00
2017-05-07T11:27:04.955Z,16.00
2017-05-07T11:29:32.740Z,15.70
2017-05-07T11:32:00.504Z,15.90
2017-05-07T11:34:27.932Z,16.10
2017-05-07T11:36:55.187Z,16.20
2017-05-07T11:39:22.948Z,16.20
2017-05-07T11:41:50.424Z,16.40
2017-05-07T11:44:17.452Z,16.20
2017-05-07T11:46:44.508Z,16.10
2017-05-07T11:49:11.960Z,16.10
2017-05-07T11:51:38.964Z,16.40
2017-05-07T11:54:05.977Z,16.40
2017-05-07T11:56:33.421Z,16.30
2017-05-07T11:59:00.487Z,16.40
2017-05-07T12:01:27.540Z,16.50
2017-05-07T12:03:54.979Z,16.30
2017-05-07T12:06:22.766Z,16.30
2017-05-07T12:08:49.831Z,16.80
2017-05-07T12:11:17.228Z,16.90
2017-05-07T12:13:44.255Z,17.00
2017-05-07T12:16:11.270Z,17.00
2017-05-07T12:18:38.646Z,17.00
2017-05-07T12:21:05.673Z,16.70
2017-05-07T12:23:32.696Z,16.70
2017-05-07T12:26:00.128Z,16.80
2017-05-07T12:28:27.184Z,17.20
2017-05-07T12:30:54.960Z,17.30
2017-05-07T12:33:22.345Z,17.30
2017-05-07T12:35:49.428Z,17.50
2017-05-07T12:38:16.442Z,17.30
2017-05-07T12:40:43.929Z,17.40
2017-05-07T12:43:10.940Z,17.60
2017-05-07T12:45:38.023Z,17.40
2017-05-07T12:48:05.498Z,17.50
2017-05-07T12:50:32.561Z,17.60
2017-05-07T12:53:00.291Z,17.70
2017-05-07T12:55:27.642Z,17.90
2017-05-07T12:57:54.666Z,17.80
2017-05-07T13:00:21.688Z,18.10
2017-05-07T13:02:49.086Z,18.80
2017-05-07T13:05:16.183Z,18.70
2017-05-07T13:07:43.237Z,18.40
2017-05-07T13:10:10.763Z,18.30
2017-05-07T13:12:38.615Z,18.40
2017-05-07T13:15:05.669Z,18.90
2017-05-07T13:17:33.815Z,18.80
2017-05-07T13:20:00.840Z,19.00
2017-05-07T13:22:27.900Z,19.20
2017-05-07T13:24:55.225Z,19.20
2017-05-07T13:27:22.245Z,19.10
2017-05-07T13:29:50.034Z,19.40
2017-05-07T13:32:17.446Z,19.70
2017-05-07T13:34:44.472Z,19.90
2017-05-07T13:37:11.536Z,19.90
2017-05-07T13:39:38.999Z,20.10
2017-05-07T13:42:06.037Z,20.10
2017-05-07T13:44:33.103Z,20.10
2017-05-07T13:47:01.254Z,20.10
2017-05-07T13:49:28.285Z,20.30
2017-05-07T13:51:55.315Z,20.40
2017-05-07T13:54:22.724Z,20.30
2017-05-07T13:56:49.752Z,20.30
2017-05-07T13:59:16.772Z,20.30
2017-05-07T14:01:44.177Z,20.50
2017-05-07T14:04:11.961Z,20.60
2017-05-07T14:06:39.000Z,20.70
2017-05-07T14:09:06.428Z,21.00
2017-05-07T14:11:33.437Z,21.10
2017-05-07T14:14:00.480Z,21.30
2017-05-07T14:16:28.594Z,21.50
2017-05-07T14:18:55.612Z,21.40
2017-05-07T14:21:23.147Z,22.10
2017-05-07T14:23:51.140Z,22.50
2017-05-07T14:26:18.147Z,22.40
2017-05-07T14:28:45.184Z,22.80
2017-05-07T14:31:12.617Z,23.30
2017-05-07T14:33:40.409Z,23.50
2017-05-07T14:36:08.089Z,23.50
2017-05-07T14:38:35.576Z,24.10
2017-05-07T14:41:02.635Z,24.60
2017-05-07T14:43:29.644Z,24.30
2017-05-07T14:45:57.031Z,24.30
2017-05-07T14:48:24.893Z,23.90
2017-05-07T14:50:51.914Z,23.90
2017-05-07T14:53:19.290Z,24.40
2017-05-07T14:55:46.320Z,25.90
2017-05-07T14:58:13.365Z,27.00
2017-05-07T15:00:41.568Z,27.30
2017-05-07T15:03:09.329Z,27.10
2017-05-07T15:05:37.115Z,25.70
2017-05-07T15:08:04.534Z,24.70
2017-05-07T15:10:32.306Z,24.60
2017-05-07T15:13:00.103Z,26.40
2017-05-07T15:15:27.511Z,28.60
2017-05-07T15:17:54.546Z,29.50
2017-05-07T15:20:22.353Z,30.40
2017-05-07T15:22:49.769Z,30.50
2017-05-07T15:25:16.826Z,28.50
2017-05-07T15:27:43.858Z,28.20
2017-05-07T15:30:12.020Z,27.10
2017-05-07T15:32:39.021Z,26.30
2017-05-07T15:35:06.065Z,25.30
2017-05-07T15:37:33.463Z,24.00
2017-05-07T15:40:00.539Z,23.50
2017-05-07T15:42:28.316Z,24.80
2017-05-07T15:44:55.743Z,25.30
2017-05-07T15:47:23.516Z,26.70
2017-05-07T15:49:51.286Z,26.30
2017-05-07T15:52:19.373Z,25.30
2017-05-07T15:54:46.453Z,25.70
2017-05-07T15:57:13.472Z,26.20
2017-05-07T15:59:40.875Z,27.20
2017-05-07T16:02:08.648Z,27.40
2017-05-07T16:04:36.424Z,28.40
2017-05-07T16:07:03.863Z,27.60
2017-05-07T16:09:30.880Z,26.40
2017-05-07T16:11:58.109Z,27.70
2017-05-07T16:14:26.049Z,29.20
2017-05-07T16:17:12.009Z,29.00
2017-05-07T16:28:45.524Z,28.00
2017-05-07T16:31:13.618Z,28.80
2017-05-07T16:33:41.391Z,29.50
2017-05-07T16:36:08.376Z,29.50
2017-05-07T16:38:35.776Z,29.90
2017-05-07T16:41:02.765Z,29.60
2017-05-07T16:43:29.708Z,29.10
2017-05-07T16:45:57.089Z,28.80
2017-05-07T16:48:24.789Z,28.40
2017-05-07T16:50:51.767Z,28.30
2017-05-07T16:53:19.182Z,26.30
2017-05-07T16:55:46.145Z,26.40
2017-05-07T16:58:13.088Z,26.70
2017-05-07T17:00:40.419Z,26.40
2017-05-07T17:03:13.535Z,25.70
2017-05-07T17:05:41.575Z,24.70
2017-05-07T17:08:08.644Z,24.00
2017-05-07T17:10:35.630Z,23.90
2017-05-07T17:13:02.992Z,23.70
2017-05-07T17:15:30.690Z,23.90
2017-05-07T17:17:57.626Z,23.90
2017-05-07T17:20:25.066Z,23.60
2017-05-07T17:22:52.020Z,23.30
2017-05-07T17:25:19.005Z,23.10
2017-05-07T17:27:46.402Z,22.60
2017-05-07T17:30:14.173Z,22.10
2017-05-07T17:32:41.957Z,21.90
2017-05-07T17:35:09.380Z,21.80
2017-05-07T17:37:36.377Z,21.40
2017-05-07T17:40:03.444Z,21.20
2017-05-07T17:42:31.545Z,21.20
2017-05-07T17:44:58.638Z,20.80
2017-05-07T17:47:25.685Z,20.70
2017-05-07T17:49:53.076Z,20.50
2017-05-07T17:52:20.124Z,20.40
2017-05-07T17:54:47.926Z,20.20
2017-05-07T17:57:16.767Z,20.30
2017-05-07T17:59:43.818Z,20.30
2017-05-07T18:02:10.845Z,20.40
2017-05-07T18:04:38.224Z,20.20
2017-05-07T18:07:06.022Z,19.60
2017-05-07T18:09:33.073Z,19.40
2017-05-07T18:12:00.580Z,19.20
2017-05-07T18:14:27.638Z,19.20
2017-05-07T18:16:55.415Z,19.10
2017-05-07T18:19:23.577Z,19.10
2017-05-07T18:21:50.632Z,19.00
2017-05-07T18:24:16.920Z,18.90
2017-05-07T18:26:44.267Z,18.90
2017-05-07T18:29:11.256Z,18.70
2017-05-07T18:31:38.310Z,18.60
2017-05-07T18:34:05.754Z,18.60
2017-05-07T18:36:33.521Z,18.50
2017-05-07T18:39:01.293Z,18.40
2017-05-07T18:41:28.736Z,18.60
2017-05-07T18:43:55.828Z,18.60
2017-05-07T18:46:22.878Z,18.50
2017-05-07T18:48:50.253Z,18.40
2017-05-07T18:51:17.288Z,18.20
2017-05-07T18:53:44.308Z,18.10
2017-05-07T18:56:12.470Z,17.90
2017-05-07T18:58:39.546Z,17.90
2017-05-07T19:01:06.556Z,17.80
2017-05-07T19:03:34.838Z,17.90
2017-05-07T19:06:01.896Z,18.00
2017-05-07T19:08:29.672Z,18.00
2017-05-07T19:10:57.192Z,18.10
2017-05-07T19:13:24.288Z,18.20
2017-05-07T19:15:51.382Z,18.00
2017-05-07T19:18:18.836Z,18.20
2017-05-07T19:20:45.844Z,18.30
2017-05-07T19:23:12.852Z,18.00
2017-05-07T19:25:40.892Z,17.80
2017-05-07T19:28:07.907Z,18.00
2017-05-07T19:30:35.101Z,17.90
2017-05-07T19:33:02.668Z,17.90
2017-05-07T19:35:30.440Z,18.00
2017-05-07T19:37:57.433Z,17.80
2017-05-07T19:40:24.808Z,17.80
2017-05-07T19:42:51.824Z,18.00
2017-05-07T19:45:18.913Z,18.00
2017-05-07T19:47:46.403Z,18.00
2017-05-07T19:50:14.189Z,18.00
2017-05-07T19:52:41.944Z,17.80
2017-05-07T19:55:10.036Z,17.50
2017-05-07T19:57:37.076Z,17.30
2017-05-07T20:00:04.957Z,17.30
2017-05-07T20:02:32.465Z,17.30
2017-05-07T20:04:59.475Z,17.30
2017-05-07T20:07:26.506Z,17.10
2017-05-07T20:09:53.892Z,17.20
2017-05-07T20:12:20.906Z,17.00
2017-05-07T20:14:47.984Z,16.80
2017-05-07T20:17:15.349Z,16.80
2017-05-07T20:19:42.347Z,16.90
2017-05-07T20:22:09.354Z,16.80
2017-05-07T20:24:39.100Z,16.10
2017-05-07T20:27:08.079Z,16.10
2017-05-07T20:29:35.851Z,16.30
2017-05-07T20:32:03.194Z,16.70
2017-05-07T20:34:31.208Z,16.70
2017-05-07T20:36:58.269Z,16.70
2017-05-07T20:39:25.761Z,16.60
2017-05-07T20:41:52.779Z,16.20
2017-05-07T20:44:19.816Z,16.00
2017-05-07T20:46:47.232Z,15.90
2017-05-07T20:49:14.989Z,15.50
2017-05-07T20:51:42.032Z,15.30
2017-05-07T20:54:10.315Z,15.30
2017-05-07T20:56:37.292Z,15.60
2017-05-07T20:59:04.332Z,15.60
2017-05-07T21:01:32.484Z,15.60
2017-05-07T21:04:00.263Z,15.60
2017-05-07T21:06:27.988Z,15.40
2017-05-07T21:08:55.337Z,15.60
2017-05-07T21:11:22.348Z,15.40
2017-05-07T21:13:49.356Z,14.90
2017-05-07T21:16:16.790Z,14.90
2017-05-07T21:18:43.769Z,15.00
2017-05-07T21:21:10.809Z,15.00
2017-05-07T21:23:38.359Z,15.00
2017-05-07T21:26:05.386Z,15.00
2017-05-07T21:28:32.458Z,15.00
2017-05-07T21:30:59.913Z,15.10
2017-05-07T21:33:26.916Z,15.00
2017-05-07T21:35:53.932Z,15.00
2017-05-07T21:38:21.724Z,15.00
2017-05-07T21:40:48.734Z,15.10
2017-05-07T21:43:16.064Z,15.00
2017-05-07T21:45:43.080Z,14.80
2017-05-07T21:48:10.167Z,14.80
2017-05-07T21:50:37.217Z,14.60
2017-05-07T21:53:04.290Z,14.50
2017-05-07T21:55:32.424Z,14.50
2017-05-07T21:57:59.429Z,14.50
2017-05-07T22:00:26.701Z,14.70
2017-05-07T22:02:53.693Z,14.60
2017-05-07T22:05:20.759Z,14.50
2017-05-07T22:07:48.045Z,14.60
2017-05-07T22:10:15.052Z,14.60
2017-05-07T22:12:42.037Z,14.60
2017-05-07T22:15:09.340Z,14.60
2017-05-07T22:17:36.328Z,14.60
2017-05-07T22:20:03.333Z,14.50
2017-05-07T22:22:30.358Z,14.60
2017-05-07T22:24:58.145Z,14.60
2017-05-07T22:27:25.477Z,14.60
2017-05-07T22:29:52.473Z,14.60
2017-05-07T22:32:20.428Z,14.60
2017-05-07T22:34:48.472Z,14.40
2017-05-07T22:37:15.653Z,14.50
2017-05-07T22:39:43.213Z,14.50
2017-05-07T22:42:10.329Z,14.20
2017-05-07T22:44:37.392Z,14.00
2017-05-07T22:47:04.468Z,14.10
2017-05-07T22:49:32.224Z,14.00
2017-05-07T22:51:59.524Z,14.20
2017-05-07T22:54:26.580Z,14.20
2017-05-07T22:56:53.601Z,14.20
2017-05-07T22:59:20.610Z,14.10
2017-05-07T23:01:47.622Z,14.10
2017-05-07T23:04:14.995Z,14.10
2017-05-07T23:06:41.995Z,14.20
2017-05-07T23:09:09.002Z,14.20
2017-05-07T23:11:36.018Z,13.80
2017-05-07T23:14:02.997Z,13.60
2017-05-07T23:16:30.305Z,13.50
2017-05-07T23:18:57.279Z,13.40
2017-05-07T23:21:24.276Z,13.40
2017-05-07T23:23:51.290Z,13.10
2017-05-07T23:26:18.309Z,13.20
2017-05-07T23:28:45.295Z,13.20
2017-05-07T23:31:13.076Z,13.20
2017-05-07T23:33:39.792Z,13.20
2017-05-07T23:36:06.825Z,12.90
2017-05-07T23:38:33.991Z,13.10
2017-05-07T23:41:00.996Z,13.00
2017-05-07T23:43:27.992Z,12.80
2017-05-07T23:45:55.320Z,12.40
2017-05-07T23:48:22.361Z,12.40
2017-05-07T23:50:49.389Z,12.30
2017-05-07T23:53:16.410Z,12.20
2017-05-07T23:55:43.438Z,12.30
2017-05-07T23:58:10.779Z,12.30
